createdAt,value
2024-02-21T00:02:25.840Z,57.39
2024-02-21T00:05:13.472Z,57.50
2024-02-21T00:08:01.296Z,57.48
2024-02-21T00:10:49.193Z,57.43
2024-02-21T00:13:36.977Z,57.54
2024-02-21T00:16:24.640Z,57.66
2024-02-21T00:19:12.441Z,58.41
2024-02-21T00:22:00.166Z,59.15
2024-02-21T00:24:47.838Z,59.04
2024-02-21T00:27:35.440Z,58.91
2024-02-21T00:30:23.099Z,59.32
2024-02-21T00:33:10.867Z,59.24
2024-02-21T00:35:58.587Z,59.92
2024-02-21T00:38:46.240Z,60.43
2024-02-21T00:41:33.908Z,59.81
2024-02-21T00:44:21.683Z,60.27
2024-02-21T00:47:09.369Z,60.51
2024-02-21T00:49:57.040Z,59.37
2024-02-21T00:52:44.814Z,59.09
2024-02-21T00:55:32.490Z,58.60
2024-02-21T00:58:20.170Z,58.12
2024-02-21T01:01:07.916Z,58.43
2024-02-21T01:03:55.673Z,58.57
2024-02-21T01:06:43.390Z,58.52
2024-02-21T01:09:31.034Z,57.43
2024-02-21T01:12:18.718Z,57.52
2024-02-21T01:15:06.366Z,57.21
2024-02-21T01:17:54.119Z,57.93
2024-02-21T01:20:41.812Z,57.93
2024-02-21T01:23:29.468Z,56.43
2024-02-21T01:26:17.095Z,55.31
2024-02-21T01:29:04.832Z,54.07
2024-02-21T01:31:52.536Z,53.93
2024-02-21T01:34:40.320Z,53.66
2024-02-21T01:37:28.058Z,53.14
2024-02-21T01:40:15.795Z,53.70
2024-02-21T01:43:03.500Z,53.75
2024-02-21T01:45:51.219Z,53.40
2024-02-21T01:48:38.906Z,52.55
2024-02-21T01:51:26.685Z,50.05
2024-02-21T01:54:14.364Z,49.21
2024-02-21T01:57:01.995Z,48.49
2024-02-21T01:59:49.822Z,49.54
2024-02-21T02:02:37.479Z,49.98
2024-02-21T02:05:25.103Z,50.09
2024-02-21T02:08:12.759Z,49.81
2024-02-21T02:11:00.571Z,49.22
2024-02-21T02:13:48.414Z,49.94
2024-02-21T02:16:36.096Z,48.72
2024-02-21T02:19:23.891Z,46.73
2024-02-21T02:22:11.615Z,46.71
2024-02-21T02:24:59.309Z,47.12
2024-02-21T02:27:49.352Z,47.87
2024-02-21T02:30:37.016Z,47.99
2024-02-21T02:33:24.906Z,47.65
2024-02-21T02:36:12.661Z,47.65
2024-02-21T02:39:00.326Z,46.67
2024-02-21T02:41:47.971Z,46.78
2024-02-21T02:44:35.646Z,47.14
2024-02-21T02:47:23.281Z,46.83
2024-02-21T02:50:10.910Z,46.03
2024-02-21T02:52:58.586Z,46.28
2024-02-21T02:55:47.341Z,47.26
2024-02-21T02:58:35.103Z,47.99
2024-02-21T03:01:22.818Z,47.77
2024-02-21T03:04:10.536Z,46.69
2024-02-21T03:06:58.196Z,45.73
2024-02-21T03:09:45.845Z,45.55
2024-02-21T03:12:33.507Z,45.99
2024-02-21T03:15:21.120Z,46.34
2024-02-21T03:18:08.891Z,46.78
2024-02-21T03:20:56.572Z,47.02
2024-02-21T03:23:44.211Z,46.52
2024-02-21T03:26:31.861Z,45.93
2024-02-21T03:29:19.458Z,46.20
2024-02-21T03:32:07.147Z,45.94
2024-02-21T03:34:54.840Z,45.72
2024-02-21T03:37:42.582Z,45.50
2024-02-21T03:40:30.319Z,45.02
2024-02-21T03:43:18.016Z,44.85
2024-02-21T03:46:05.664Z,44.38
2024-02-21T03:48:53.317Z,45.21
2024-02-21T03:51:40.934Z,45.53
2024-02-21T03:54:28.563Z,45.87
2024-02-21T03:57:16.587Z,45.45
2024-02-21T04:00:04.228Z,45.35
2024-02-21T04:02:51.837Z,45.58
2024-02-21T04:05:39.482Z,45.61
2024-02-21T04:08:27.109Z,45.59
2024-02-21T04:11:14.772Z,45.29
2024-02-21T04:14:02.497Z,45.07
2024-02-21T04:16:50.243Z,44.07
2024-02-21T04:19:37.950Z,44.26
2024-02-21T04:22:25.669Z,43.80
2024-02-21T04:25:13.371Z,43.42
2024-02-21T04:28:01.095Z,43.15
2024-02-21T04:30:48.719Z,42.15
2024-02-21T04:33:36.371Z,42.85
2024-02-21T04:36:23.996Z,42.57
2024-02-21T04:39:11.634Z,42.59
2024-02-21T04:41:59.254Z,44.71
2024-02-21T04:44:48.888Z,48.80
2024-02-21T04:47:36.540Z,49.30
2024-02-21T04:50:24.283Z,49.97
2024-02-21T04:53:11.996Z,52.26
2024-02-21T04:55:59.823Z,53.10
2024-02-21T04:58:47.540Z,54.13
2024-02-21T05:01:35.334Z,54.98
2024-02-21T05:04:23.173Z,54.58
2024-02-21T05:07:10.853Z,54.33
2024-02-21T05:09:58.562Z,53.13
2024-02-21T05:12:46.210Z,52.25
2024-02-21T05:15:33.859Z,51.90
2024-02-21T05:18:21.568Z,51.40
2024-02-21T05:21:09.256Z,50.29
2024-02-21T05:23:56.881Z,49.66
2024-02-21T05:26:44.515Z,49.51
2024-02-21T05:29:32.155Z,49.32
2024-02-21T05:32:19.807Z,49.28
2024-02-21T05:35:07.478Z,49.39
2024-02-21T05:37:57.249Z,49.52
2024-02-21T05:40:44.973Z,49.91
2024-02-21T05:43:32.794Z,48.73
2024-02-21T05:46:20.462Z,49.20
2024-02-21T05:49:08.236Z,48.79
2024-02-21T05:51:55.921Z,49.12
2024-02-21T05:54:47.440Z,49.36
2024-02-21T05:57:35.846Z,49.25
2024-02-21T06:00:23.489Z,49.39
2024-02-21T06:03:11.149Z,48.91
2024-02-21T06:06:00.830Z,48.80
2024-02-21T06:08:48.455Z,48.45
2024-02-21T06:11:36.233Z,48.53
2024-02-21T06:14:23.927Z,48.33
2024-02-21T06:17:11.598Z,48.61
2024-02-21T06:19:59.248Z,48.92
2024-02-21T06:22:46.928Z,49.43
2024-02-21T06:25:34.604Z,50.71
2024-02-21T06:28:22.304Z,51.59
2024-02-21T06:31:09.983Z,51.34
2024-02-21T06:33:57.724Z,51.42
2024-02-21T06:36:45.443Z,51.82
2024-02-21T06:39:33.110Z,53.31
2024-02-21T06:42:20.732Z,52.87
2024-02-21T06:45:08.377Z,52.40
2024-02-21T06:47:56.071Z,51.66
2024-02-21T06:50:43.750Z,51.00
2024-02-21T06:53:31.410Z,50.32
2024-02-21T06:56:19.034Z,50.04
2024-02-21T06:59:06.703Z,49.41
2024-02-21T07:01:54.425Z,48.63
2024-02-21T07:04:42.275Z,48.05
2024-02-21T07:07:30.225Z,47.23
2024-02-21T07:10:17.988Z,47.10
2024-02-21T07:13:05.646Z,47.15
2024-02-21T07:15:53.296Z,46.68
2024-02-21T07:18:40.951Z,47.18
2024-02-21T07:21:28.698Z,47.22
2024-02-21T07:24:16.418Z,47.37
2024-02-21T07:27:04.057Z,47.49
2024-02-21T07:29:51.704Z,47.11
2024-02-21T07:32:39.384Z,47.39
2024-02-21T07:35:27.086Z,47.31
2024-02-21T07:38:14.831Z,47.44
2024-02-21T07:41:00.867Z,46.95
2024-02-21T07:43:46.892Z,46.81
2024-02-21T07:46:34.589Z,47.04
2024-02-21T07:49:22.421Z,47.29
2024-02-21T07:52:12.096Z,47.16
2024-02-21T07:54:59.753Z,46.94
2024-02-21T07:57:47.388Z,46.06
2024-02-21T08:00:37.090Z,45.17
2024-02-21T08:03:24.845Z,45.80
2024-02-21T08:06:12.649Z,45.78
2024-02-21T08:09:00.346Z,45.80
2024-02-21T08:11:48.027Z,45.74
2024-02-21T08:14:35.689Z,46.15
2024-02-21T08:17:23.335Z,45.51
2024-02-21T08:20:10.982Z,45.25
2024-02-21T08:22:58.670Z,43.76
2024-02-21T08:25:46.374Z,44.26
2024-02-21T08:28:34.030Z,43.05
2024-02-21T08:31:21.796Z,43.11
2024-02-21T08:34:09.496Z,44.26
2024-02-21T08:36:57.138Z,44.16
2024-02-21T08:39:44.789Z,44.97
2024-02-21T08:42:34.732Z,44.62
2024-02-21T08:45:22.624Z,45.25
2024-02-21T08:48:10.369Z,45.00
2024-02-21T08:50:58.193Z,45.13
2024-02-21T08:53:45.919Z,44.74
2024-02-21T08:56:33.567Z,45.56
2024-02-21T08:59:21.246Z,44.43
2024-02-21T09:02:08.932Z,42.83
2024-02-21T09:04:56.814Z,43.66
2024-02-21T09:07:44.584Z,43.33
2024-02-21T09:10:32.280Z,43.11
2024-02-21T09:13:19.998Z,42.15
2024-02-21T09:16:09.683Z,43.31
2024-02-21T09:18:59.166Z,42.98
2024-02-21T09:21:46.873Z,42.45
2024-02-21T09:24:34.495Z,45.02
2024-02-21T09:27:22.183Z,44.69
2024-02-21T09:30:10.003Z,42.98
2024-02-21T09:32:57.870Z,44.36
2024-02-21T09:35:45.602Z,45.38
2024-02-21T09:38:33.319Z,45.45
2024-02-21T09:41:24.437Z,45.32
2024-02-21T09:44:13.952Z,44.81
2024-02-21T09:47:01.621Z,44.25
2024-02-21T09:49:49.481Z,44.68
2024-02-21T09:52:37.168Z,44.43
2024-02-21T09:55:24.846Z,43.71
2024-02-21T09:58:12.578Z,43.51
2024-02-21T10:01:04.504Z,43.66
2024-02-21T10:03:55.571Z,44.37
2024-02-21T10:06:44.323Z,44.05
2024-02-21T10:09:32.160Z,43.74
2024-02-21T10:12:19.838Z,42.66
2024-02-21T10:15:07.472Z,42.82
2024-02-21T10:17:55.169Z,41.40
2024-02-21T10:20:42.882Z,42.37
2024-02-21T10:23:32.547Z,43.17
2024-02-21T10:26:19.040Z,43.42
2024-02-21T10:29:05.351Z,42.40
2024-02-21T10:31:55.142Z,44.55
2024-02-21T10:34:43.178Z,42.94
2024-02-21T10:37:31.242Z,43.08
2024-02-21T10:40:20.894Z,44.51
2024-02-21T10:43:08.571Z,45.29
2024-02-21T10:45:56.217Z,45.62
2024-02-21T10:48:44.003Z,45.29
2024-02-21T10:51:31.753Z,44.93
2024-02-21T10:54:19.422Z,44.64
2024-02-21T10:57:07.048Z,43.56
2024-02-21T10:59:54.800Z,43.28
2024-02-21T11:02:42.608Z,43.36
2024-02-21T11:05:30.400Z,44.01
2024-02-21T11:08:18.082Z,42.05
2024-02-21T11:11:05.925Z,43.91
2024-02-21T11:13:53.682Z,43.72
2024-02-21T11:16:41.445Z,43.40
2024-02-21T11:19:29.364Z,42.06
2024-02-21T11:22:17.136Z,42.84
2024-02-21T11:25:04.752Z,43.46
2024-02-21T11:27:52.385Z,42.92
2024-02-21T11:30:40.013Z,43.16
2024-02-21T11:33:27.715Z,43.84
2024-02-21T11:36:15.386Z,42.18
2024-02-21T11:39:03.041Z,42.32
2024-02-21T11:41:50.663Z,43.37
2024-02-21T11:44:38.398Z,43.18
2024-02-21T11:47:28.066Z,43.59
2024-02-21T11:50:17.755Z,43.26
2024-02-21T11:53:07.208Z,43.25
2024-02-21T11:55:55.204Z,43.23
2024-02-21T11:58:43.030Z,43.43
2024-02-21T12:01:30.771Z,43.89
2024-02-21T12:04:18.554Z,42.48
2024-02-21T12:07:06.296Z,44.09
2024-02-21T12:09:53.934Z,43.92
2024-02-21T12:12:41.569Z,44.56
2024-02-21T12:15:29.198Z,46.24
2024-02-21T12:18:16.954Z,45.83
2024-02-21T12:21:04.676Z,45.50
2024-02-21T12:23:52.312Z,45.16
2024-02-21T12:26:39.965Z,43.36
2024-02-21T12:29:27.640Z,42.64
2024-02-21T12:32:15.390Z,41.40
2024-02-21T12:35:03.260Z,43.07
2024-02-21T12:37:50.992Z,41.61
2024-02-21T12:40:38.705Z,43.09
2024-02-21T12:43:26.432Z,40.99
2024-02-21T12:46:14.074Z,41.45
2024-02-21T12:49:01.744Z,41.71
2024-02-21T12:51:49.600Z,41.86
2024-02-21T12:54:37.286Z,41.27
2024-02-21T12:57:27.551Z,40.50
2024-02-21T13:00:15.865Z,38.89
2024-02-21T13:03:03.538Z,38.93
2024-02-21T13:05:51.226Z,40.37
2024-02-21T13:08:38.890Z,40.72
2024-02-21T13:11:26.624Z,39.71
2024-02-21T13:14:14.463Z,40.47
2024-02-21T13:17:02.191Z,38.65
2024-02-21T13:19:50.065Z,39.10
2024-02-21T13:22:37.875Z,39.21
2024-02-21T13:25:25.597Z,38.73
2024-02-21T13:28:13.245Z,38.40
2024-02-21T13:31:00.864Z,39.16
2024-02-21T13:33:48.575Z,38.83
2024-02-21T13:36:36.328Z,37.49
2024-02-21T13:39:24.051Z,38.24
2024-02-21T13:42:11.704Z,38.45
2024-02-21T13:44:59.378Z,37.82
2024-02-21T13:47:47.052Z,36.68
2024-02-21T13:50:36.711Z,38.00
2024-02-21T13:53:24.350Z,38.75
2024-02-21T13:56:12.008Z,38.01
2024-02-21T13:58:59.758Z,36.84
2024-02-21T14:01:47.570Z,37.58
2024-02-21T14:04:35.352Z,37.09
2024-02-21T14:07:23.063Z,36.34
2024-02-21T14:10:10.895Z,37.66
2024-02-21T14:12:58.705Z,37.57
2024-02-21T14:15:46.352Z,37.50
2024-02-21T14:18:34.189Z,37.78
2024-02-21T14:21:21.918Z,37.25
2024-02-21T14:24:09.547Z,36.17
2024-02-21T14:26:57.213Z,36.89
2024-02-21T14:29:44.880Z,36.30
2024-02-21T14:32:32.693Z,36.17
2024-02-21T14:35:20.475Z,37.87
2024-02-21T14:38:08.604Z,38.20
2024-02-21T14:40:56.395Z,38.56
2024-02-21T14:43:44.379Z,39.71
2024-02-21T14:46:34.360Z,40.78
2024-02-21T14:49:22.307Z,41.37
2024-02-21T14:52:10.070Z,41.81
2024-02-21T14:54:57.759Z,42.18
2024-02-21T14:57:45.388Z,41.57
2024-02-21T15:00:33.475Z,41.03
2024-02-21T15:03:21.228Z,38.65
2024-02-21T15:06:09.011Z,38.37
2024-02-21T15:08:56.682Z,38.42
2024-02-21T15:11:46.366Z,37.76
2024-02-21T15:14:34.071Z,37.52
2024-02-21T15:17:21.790Z,37.32
2024-02-21T15:20:09.490Z,36.68
2024-02-21T15:22:57.223Z,36.40
2024-02-21T15:25:45.046Z,36.07
2024-02-21T15:28:32.843Z,37.23
2024-02-21T15:31:20.591Z,36.83
2024-02-21T15:34:08.292Z,36.79
2024-02-21T15:36:56.252Z,37.15
2024-02-21T15:39:43.916Z,38.09
2024-02-21T15:42:31.652Z,37.08
2024-02-21T15:45:19.286Z,37.26
2024-02-21T15:48:06.971Z,37.38
2024-02-21T15:50:54.651Z,37.19
2024-02-21T15:53:42.318Z,35.65
2024-02-21T15:56:29.987Z,36.57
2024-02-21T15:59:17.713Z,35.67
2024-02-21T16:02:05.406Z,36.55
2024-02-21T16:04:53.294Z,36.30
2024-02-21T16:07:41.203Z,35.73
2024-02-21T16:10:28.961Z,35.78
2024-02-21T16:13:16.624Z,35.64
2024-02-21T16:16:04.373Z,36.71
2024-02-21T16:18:52.016Z,37.05
2024-02-21T16:21:39.689Z,36.88
2024-02-21T16:24:27.355Z,36.48
2024-02-21T16:27:17.025Z,37.18
2024-02-21T16:30:07.020Z,37.29
2024-02-21T16:32:56.251Z,37.20
2024-02-21T16:35:44.066Z,36.52
2024-02-21T16:38:31.804Z,37.18
2024-02-21T16:41:21.506Z,37.16
2024-02-21T16:44:09.237Z,37.09
2024-02-21T16:46:56.922Z,36.91
2024-02-21T16:49:44.658Z,36.95
2024-02-21T16:52:32.610Z,37.67
2024-02-21T16:55:20.341Z,37.71
2024-02-21T16:58:08.000Z,37.28
2024-02-21T17:00:57.751Z,37.64
2024-02-21T17:03:45.584Z,37.49
2024-02-21T17:06:33.444Z,37.37
2024-02-21T17:09:21.119Z,37.21
2024-02-21T17:12:08.887Z,36.89
2024-02-21T17:14:56.543Z,36.87
2024-02-21T17:17:44.280Z,37.12
2024-02-21T17:20:31.930Z,36.61
2024-02-21T17:23:19.669Z,35.87
2024-02-21T17:26:07.554Z,36.47
2024-02-21T17:28:55.403Z,36.06
2024-02-21T17:31:43.086Z,35.83
2024-02-21T17:34:32.809Z,36.01
2024-02-21T17:37:20.519Z,35.49
2024-02-21T17:40:10.145Z,36.70
2024-02-21T17:42:57.809Z,36.63
2024-02-21T17:45:45.428Z,37.07
2024-02-21T17:48:33.134Z,36.65
2024-02-21T17:51:20.964Z,37.16
2024-02-21T17:54:08.627Z,37.40
2024-02-21T17:56:56.346Z,37.72
2024-02-21T17:59:44.165Z,37.51
2024-02-21T18:02:31.936Z,37.03
2024-02-21T18:05:19.640Z,37.44
2024-02-21T18:08:07.404Z,36.91
2024-02-21T18:10:55.283Z,37.08
2024-02-21T18:13:43.051Z,36.47
2024-02-21T18:16:30.734Z,37.00
2024-02-21T18:19:18.459Z,37.69
2024-02-21T18:22:06.164Z,37.46
2024-02-21T18:24:53.791Z,37.84
2024-02-21T18:27:41.422Z,38.44
2024-02-21T18:30:29.040Z,38.56
2024-02-21T18:33:16.784Z,39.09
2024-02-21T18:36:04.474Z,38.43
2024-02-21T18:38:52.129Z,38.15
2024-02-21T18:41:39.800Z,38.19
2024-02-21T18:44:27.441Z,38.70
2024-02-21T18:47:15.181Z,39.07
2024-02-21T18:50:03.046Z,38.80
2024-02-21T18:52:50.808Z,39.01
2024-02-21T18:55:38.538Z,39.13
2024-02-21T18:58:26.243Z,39.12
2024-02-21T19:01:14.022Z,39.75
2024-02-21T19:04:01.788Z,39.98
2024-02-21T19:06:49.452Z,39.62
2024-02-21T19:09:37.103Z,39.09
2024-02-21T19:12:24.732Z,39.27
2024-02-21T19:15:12.390Z,38.66
2024-02-21T19:18:00.087Z,39.08
2024-02-21T19:20:47.816Z,38.78
2024-02-21T19:23:35.453Z,38.96
2024-02-21T19:26:23.115Z,38.57
2024-02-21T19:29:10.959Z,37.34
2024-02-21T19:31:58.765Z,38.39
2024-02-21T19:34:46.634Z,38.22
2024-02-21T19:37:34.488Z,38.56
2024-02-21T19:40:22.153Z,39.05
2024-02-21T19:43:09.790Z,39.09
2024-02-21T19:45:57.525Z,39.44
2024-02-21T19:48:45.339Z,39.32
2024-02-21T19:51:33.037Z,38.87
2024-02-21T19:54:24.965Z,38.51
2024-02-21T19:57:13.227Z,39.19
2024-02-21T20:00:00.953Z,38.88
2024-02-21T20:02:48.587Z,39.33
2024-02-21T20:05:36.332Z,39.37
2024-02-21T20:08:24.167Z,39.84
2024-02-21T20:11:12.184Z,39.21
2024-02-21T20:13:59.955Z,40.35
2024-02-21T20:16:47.635Z,40.41
2024-02-21T20:19:35.327Z,40.97
2024-02-21T20:22:23.069Z,40.58
2024-02-21T20:25:10.713Z,41.10
2024-02-21T20:27:58.389Z,41.70
2024-02-21T20:30:46.051Z,41.22
2024-02-21T20:33:33.786Z,41.47
2024-02-21T20:36:21.440Z,41.74
2024-02-21T20:39:09.098Z,41.07
2024-02-21T20:41:56.714Z,41.49
2024-02-21T20:44:44.360Z,42.25
2024-02-21T20:47:31.996Z,41.82
2024-02-21T20:50:19.726Z,41.67
2024-02-21T20:53:07.480Z,42.46
2024-02-21T20:55:55.252Z,41.65
2024-02-21T20:58:42.921Z,42.75
2024-02-21T21:01:30.676Z,42.60
2024-02-21T21:04:20.387Z,42.89
2024-02-21T21:07:08.088Z,43.52
2024-02-21T21:09:55.742Z,43.58
2024-02-21T21:12:43.440Z,42.41
2024-02-21T21:15:31.103Z,42.45
2024-02-21T21:18:18.813Z,42.46
2024-02-21T21:21:06.621Z,41.77
2024-02-21T21:23:54.289Z,42.64
2024-02-21T21:26:41.944Z,42.53
2024-02-21T21:29:29.584Z,42.07
2024-02-21T21:32:17.257Z,42.68
2024-02-21T21:35:04.973Z,42.34
2024-02-21T21:37:52.704Z,42.39
2024-02-21T21:40:40.391Z,41.79
2024-02-21T21:43:28.049Z,42.77
2024-02-21T21:46:15.697Z,43.25
2024-02-21T21:49:03.414Z,43.22
2024-02-21T21:51:51.073Z,43.15
2024-02-21T21:54:38.708Z,43.72
2024-02-21T21:57:26.335Z,43.84
2024-02-21T22:00:13.989Z,43.37
2024-02-21T22:03:01.685Z,44.18
2024-02-21T22:05:49.334Z,43.86
2024-02-21T22:08:36.960Z,44.81
2024-02-21T22:11:24.602Z,44.47
2024-02-21T22:14:12.488Z,44.22
2024-02-21T22:17:00.222Z,43.92
2024-02-21T22:19:47.961Z,44.89
2024-02-21T22:22:35.782Z,45.13
2024-02-21T22:25:23.578Z,44.45
2024-02-21T22:28:11.245Z,44.44
2024-02-21T22:30:58.934Z,43.75
2024-02-21T22:33:46.631Z,44.36
2024-02-21T22:36:34.308Z,43.92
2024-02-21T22:39:21.901Z,44.62
2024-02-21T22:42:11.564Z,45.66
2024-02-21T22:44:59.181Z,44.51
2024-02-21T22:47:46.859Z,44.87
2024-02-21T22:50:34.497Z,45.72
2024-02-21T22:53:24.165Z,45.73
2024-02-21T22:56:11.834Z,45.64
2024-02-21T22:58:59.632Z,45.55
2024-02-21T23:01:47.299Z,45.98
2024-02-21T23:04:35.080Z,45.65
2024-02-21T23:07:22.836Z,45.26
2024-02-21T23:10:10.482Z,45.36
2024-02-21T23:12:58.125Z,44.71
2024-02-21T23:15:46.864Z,45.79
2024-02-21T23:18:35.429Z,44.98
2024-02-21T23:21:23.096Z,45.98
2024-02-21T23:24:10.758Z,46.05
2024-02-21T23:26:58.408Z,46.03
2024-02-21T23:29:46.070Z,45.92
2024-02-21T23:32:33.751Z,45.94
2024-02-21T23:35:21.420Z,46.25
2024-02-21T23:38:09.180Z,46.73
2024-02-21T23:40:56.897Z,47.01
2024-02-21T23:43:44.603Z,47.32
2024-02-21T23:46:32.294Z,47.69
2024-02-21T23:49:20.030Z,47.88
2024-02-21T23:52:07.728Z,48.96
2024-02-21T23:54:55.407Z,48.66
2024-02-21T23:57:43.043Z,48.90
